Time;durP1;ratioP1;P1;durP2;ratioP2;P2;SDS_P1;SDS_P2;PMS_P1;PMS_P2;Temp;Humidity;BMP_temperature;BMP_pressure;BME280_temperature;BME280_humidity;BME280_pressure;Samples;Min_cycle;Max_cycle;Signal;HPM_P1;HPM_P2
2024/01/17 00:01:02;;;;;;;12.80;7.90;;;-2.20;99.90;;;;;;4930741;28;20027;-72
2024/01/17 00:03:27;;;;;;;16.55;9.05;;;-2.10;99.90;;;;;;4935615;28;20790;-72
2024/01/17 00:05:53;;;;;;;9.27;5.30;;;-2.10;99.90;;;;;;4936145;28;20056;-71
2024/01/17 00:08:19;;;;;;;13.25;7.20;;;-2.10;99.90;;;;;;4920815;28;20095;-71
2024/01/17 00:10:45;;;;;;;6.72;4.32;;;-2.10;99.90;;;;;;4935667;28;20157;-67
2024/01/17 00:13:10;;;;;;;3.25;2.33;;;-2.20;99.90;;;;;;4933250;28;20069;-67
2024/01/17 00:15:36;;;;;;;4.97;2.70;;;-2.20;99.90;;;;;;4935345;28;20039;-68
2024/01/17 00:18:01;;;;;;;7.20;3.45;;;-2.30;99.90;;;;;;4938044;28;20047;-66
2024/01/17 00:20:27;;;;;;;8.07;4.10;;;-2.40;99.90;;;;;;4927307;28;20035;-68
2024/01/17 00:22:54;;;;;;;9.10;5.22;;;-2.50;99.90;;;;;;4940211;28;20164;-68
2024/01/17 00:25:19;;;;;;;8.88;4.43;;;-2.50;99.90;;;;;;4938582;28;20202;-67
2024/01/17 00:27:49;;;;;;;11.30;4.93;;;-2.50;99.90;;;;;;4937762;28;20031;-68
2024/01/17 00:30:14;;;;;;;9.75;4.72;;;-2.50;99.90;;;;;;4931328;28;20042;-69
2024/01/17 00:32:40;;;;;;;15.20;8.00;;;-2.50;99.90;;;;;;4937160;28;20056;-68
2024/01/17 00:35:08;;;;;;;17.77;9.85;;;-2.50;99.90;;;;;;4934752;28;20120;-67
2024/01/17 00:37:34;;;;;;;24.65;13.57;;;-2.50;99.90;;;;;;4935299;28;20043;-68
2024/01/17 00:39:59;;;;;;;13.98;7.97;;;-2.50;99.90;;;;;;4935416;28;20078;-68
2024/01/17 00:42:26;;;;;;;17.77;8.65;;;-2.50;99.90;;;;;;4937323;28;20496;-68
2024/01/17 00:44:53;;;;;;;14.02;7.50;;;-2.60;99.90;;;;;;4937723;28;20031;-68
2024/01/17 00:47:19;;;;;;;17.08;9.35;;;-2.60;99.90;;;;;;4935989;28;20027;-67
2024/01/17 00:49:44;;;;;;;16.23;9.10;;;-2.60;99.90;;;;;;4936401;28;20085;-67
2024/01/17 00:52:10;;;;;;;13.30;7.40;;;-2.60;99.90;;;;;;4933936;28;20046;-67
2024/01/17 00:54:35;;;;;;;19.05;10.23;;;-2.60;99.90;;;;;;4932749;28;20353;-68
2024/01/17 00:57:01;;;;;;;13.30;6.82;;;-2.70;99.90;;;;;;4934433;28;20031;-68
2024/01/17 00:59:26;;;;;;;12.68;6.82;;;-2.70;99.90;;;;;;4937950;28;20063;-67
2024/01/17 01:01:52;;;;;;;10.82;5.72;;;-2.70;99.90;;;;;;4936696;28;20027;-68
2024/01/17 01:04:18;;;;;;;10.77;5.15;;;-2.80;99.90;;;;;;4934522;28;20558;-68
2024/01/17 01:06:43;;;;;;;14.10;7.20;;;-2.90;99.90;;;;;;4932508;28;20075;-66
2024/01/17 01:09:09;;;;;;;11.30;5.82;;;-3.00;99.90;;;;;;4927356;28;20047;-67
2024/01/17 01:11:36;;;;;;;14.32;8.60;;;-3.00;99.90;;;;;;4936417;28;20538;-66
2024/01/17 01:14:02;;;;;;;14.60;8.40;;;-2.90;99.90;;;;;;4931798;28;20043;-66
2024/01/17 01:16:28;;;;;;;17.40;10.07;;;-2.90;99.90;;;;;;4932712;28;20079;-66
2024/01/17 01:18:54;;;;;;;21.98;12.70;;;-2.90;99.90;;;;;;4935159;28;20037;-65
2024/01/17 01:21:19;;;;;;;21.20;10.85;;;-2.80;99.90;;;;;;4917368;28;20388;-66
2024/01/17 01:23:46;;;;;;;17.58;8.77;;;-2.80;99.90;;;;;;4928293;28;20067;-65
2024/01/17 01:26:14;;;;;;;11.07;6.53;;;-2.90;99.90;;;;;;4934907;28;20249;-66
2024/01/17 01:28:39;;;;;;;19.98;9.98;;;-2.90;99.90;;;;;;4928560;28;20043;-65
2024/01/17 01:31:05;;;;;;;15.48;7.15;;;-3.00;99.90;;;;;;4929739;28;20111;-67
2024/01/17 01:33:30;;;;;;;15.27;7.75;;;-2.90;99.90;;;;;;4933916;28;20043;-66
2024/01/17 01:35:56;;;;;;;17.77;8.75;;;-2.90;99.90;;;;;;4934482;28;20027;-66
2024/01/17 01:38:22;;;;;;;12.82;7.13;;;-3.00;99.90;;;;;;4932871;28;20436;-66
2024/01/17 01:40:47;;;;;;;11.65;7.03;;;-3.00;99.90;;;;;;4935100;28;20724;-66
2024/01/17 01:43:22;;;;;;;12.02;6.80;;;-3.00;99.90;;;;;;4924673;28;20120;-71
2024/01/17 01:46:20;;;;;;;17.08;8.13;;;-2.90;99.90;;;;;;4932872;28;20046;-71
2024/01/17 01:48:48;;;;;;;23.83;12.45;;;-3.00;99.90;;;;;;4922211;28;20211;-72
2024/01/17 01:51:14;;;;;;;19.58;11.07;;;-3.00;99.90;;;;;;4928099;28;20435;-71
2024/01/17 01:53:42;;;;;;;22.33;12.70;;;-3.00;99.90;;;;;;4914176;28;20635;-71
2024/01/17 01:56:09;;;;;;;104.65;47.50;;;-2.90;99.90;;;;;;4932285;28;20031;-70
2024/01/17 01:58:36;;;;;;;65.35;31.65;;;-2.80;99.90;;;;;;4924889;28;20027;-71
2024/01/17 02:01:03;;;;;;;33.45;17.02;;;-2.80;99.90;;;;;;4930199;28;20035;-72
2024/01/17 02:03:30;;;;;;;81.88;41.00;;;-2.90;99.90;;;;;;4932491;28;20039;-72
2024/01/17 02:05:56;;;;;;;32.75;18.77;;;-2.80;99.90;;;;;;4933917;28;21268;-73
2024/01/17 02:08:21;;;;;;;26.45;14.48;;;-2.80;99.90;;;;;;4932616;28;20134;-74
2024/01/17 02:10:47;;;;;;;26.27;14.00;;;-2.80;99.90;;;;;;4931166;28;20062;-71
2024/01/17 02:13:13;;;;;;;28.55;14.25;;;-2.80;99.90;;;;;;4931060;28;20062;-74
2024/01/17 02:15:39;;;;;;;42.75;20.67;;;-2.80;99.90;;;;;;4930259;28;23823;-73
2024/01/17 02:18:05;;;;;;;40.25;21.20;;;-2.70;99.90;;;;;;4935607;28;20662;-74
2024/01/17 02:20:31;;;;;;;30.92;17.88;;;-2.60;99.90;;;;;;4931439;28;20039;-65
2024/01/17 02:22:56;;;;;;;30.40;15.80;;;-2.50;99.90;;;;;;4935203;28;20031;-65
2024/01/17 02:25:22;;;;;;;32.60;15.88;;;-2.50;99.90;;;;;;4933635;28;20035;-66
2024/01/17 02:27:48;;;;;;;19.48;10.73;;;-2.50;99.90;;;;;;4929784;28;20171;-65
2024/01/17 02:30:14;;;;;;;16.58;9.00;;;-2.70;99.90;;;;;;4925553;28;20035;-66
2024/01/17 02:32:42;;;;;;;20.02;10.10;;;-2.80;99.90;;;;;;4915442;29;20169;-65
2024/01/17 02:35:08;;;;;;;13.68;7.50;;;-3.00;99.90;;;;;;4927713;28;20551;-66
2024/01/17 02:37:34;;;;;;;14.98;9.25;;;-3.30;99.90;;;;;;4930552;28;20058;-66
2024/01/17 02:39:59;;;;;;;15.45;8.27;;;-3.50;99.90;;;;;;4925981;28;20185;-66
2024/01/17 02:42:25;;;;;;;21.05;10.70;;;-3.50;99.90;;;;;;4928176;28;20433;-66
2024/01/17 02:44:50;;;;;;;19.35;11.20;;;-3.50;99.90;;;;;;4924391;28;20140;-66
2024/01/17 02:47:16;;;;;;;23.40;12.82;;;-3.50;99.90;;;;;;4921812;28;20027;-66
2024/01/17 02:49:42;;;;;;;24.88;13.45;;;-3.50;99.90;;;;;;4922899;28;20059;-65
2024/01/17 02:52:07;;;;;;;27.50;13.77;;;-3.50;99.90;;;;;;4923099;28;20603;-66
2024/01/17 02:54:33;;;;;;;27.90;13.90;;;-3.40;99.90;;;;;;4925218;28;20497;-66
2024/01/17 02:56:58;;;;;;;27.02;13.98;;;-3.30;99.90;;;;;;4917215;28;21831;-66
2024/01/17 02:59:24;;;;;;;19.23;11.40;;;-3.30;99.90;;;;;;4934034;28;20046;-68
2024/01/17 03:01:50;;;;;;;17.35;7.88;;;-3.30;99.90;;;;;;4936175;28;20262;-66
2024/01/17 03:04:16;;;;;;;13.02;8.02;;;-3.30;99.90;;;;;;4937985;28;20035;-67
2024/01/17 03:06:43;;;;;;;16.65;8.32;;;-3.40;99.90;;;;;;4935105;28;20049;-67
2024/01/17 03:09:10;;;;;;;14.98;8.73;;;-3.50;99.90;;;;;;4936960;28;20145;-66
2024/01/17 03:11:36;;;;;;;14.93;8.20;;;-3.60;99.90;;;;;;4939058;28;20035;-67
2024/01/17 03:14:03;;;;;;;15.93;8.23;;;-3.70;99.90;;;;;;4939362;28;20042;-67
2024/01/17 03:16:28;;;;;;;14.75;8.88;;;-3.80;99.90;;;;;;4938952;28;20113;-66
2024/01/17 03:18:54;;;;;;;16.00;8.23;;;-3.70;99.90;;;;;;4927833;28;20093;-66
2024/01/17 03:21:20;;;;;;;17.60;10.00;;;-3.60;99.90;;;;;;4933697;29;20111;-67
2024/01/17 03:23:45;;;;;;;16.63;9.00;;;-3.50;99.90;;;;;;4927270;28;20146;-67
2024/01/17 03:26:11;;;;;;;20.90;10.15;;;-3.60;99.90;;;;;;4932197;28;20085;-67
2024/01/17 03:28:37;;;;;;;21.90;10.18;;;-3.60;99.90;;;;;;4930407;28;20038;-67
2024/01/17 03:31:02;;;;;;;19.35;10.73;;;-3.60;99.90;;;;;;4931270;28;20674;-67
2024/01/17 03:33:28;;;;;;;19.30;10.85;;;-3.60;99.90;;;;;;4929278;28;20062;-67
2024/01/17 03:35:54;;;;;;;20.42;11.40;;;-3.50;99.90;;;;;;4927718;28;20034;-67
2024/01/17 03:38:21;;;;;;;20.65;11.25;;;-3.50;99.90;;;;;;4931623;28;20736;-67
2024/01/17 03:40:47;;;;;;;18.60;11.02;;;-3.50;99.90;;;;;;4929842;28;20129;-67
2024/01/17 03:43:12;;;;;;;17.63;11.45;;;-3.50;99.90;;;;;;4930706;28;20028;-67
2024/01/17 03:45:38;;;;;;;15.88;8.90;;;-3.50;99.90;;;;;;4931263;28;20652;-67
2024/01/17 03:48:06;;;;;;;19.63;10.38;;;-3.60;99.90;;;;;;4931327;28;20027;-67
2024/01/17 03:50:32;;;;;;;17.75;10.50;;;-3.70;99.90;;;;;;4929978;28;20114;-67
2024/01/17 03:52:59;;;;;;;18.23;10.60;;;-3.70;99.90;;;;;;4933090;28;20035;-70
2024/01/17 03:55:24;;;;;;;16.80;9.73;;;-3.70;99.90;;;;;;4931945;28;20792;-71
2024/01/17 03:57:50;;;;;;;15.52;9.18;;;-3.80;99.90;;;;;;4930036;28;20552;-71
2024/01/17 04:00:16;;;;;;;15.55;9.25;;;-3.80;99.90;;;;;;4930545;28;20042;-71
2024/01/17 04:02:41;;;;;;;11.63;8.27;;;-3.90;99.90;;;;;;4932543;28;20058;-71
2024/01/17 04:05:07;;;;;;;16.02;8.30;;;-3.90;99.90;;;;;;4930986;28;20732;-71
2024/01/17 04:07:32;;;;;;;17.52;9.00;;;-4.10;99.90;;;;;;4929056;28;20131;-71
2024/01/17 04:09:58;;;;;;;16.83;8.70;;;-4.20;99.90;;;;;;4929825;28;20126;-71
2024/01/17 04:12:24;;;;;;;17.60;9.48;;;-4.20;99.90;;;;;;4929005;28;20040;-71
2024/01/17 04:14:49;;;;;;;52.47;19.98;;;-4.20;99.90;;;;;;4927753;28;20086;-71
2024/01/17 04:17:15;;;;;;;55.50;22.88;;;-4.10;99.90;;;;;;4925570;28;20740;-70
2024/01/17 04:19:41;;;;;;;40.97;19.00;;;-4.10;99.90;;;;;;4926710;28;20897;-71
2024/01/17 04:22:07;;;;;;;19.00;11.05;;;-4.10;99.90;;;;;;4926924;28;20027;-71
2024/01/17 04:24:33;;;;;;;19.90;11.43;;;-4.10;99.90;;;;;;4932151;28;20054;-70
2024/01/17 04:26:58;;;;;;;15.07;9.60;;;-4.00;99.90;;;;;;4929980;28;20059;-71
2024/01/17 04:29:24;;;;;;;21.77;11.75;;;-4.00;99.90;;;;;;4929033;28;20186;-71
2024/01/17 04:31:49;;;;;;;18.80;10.88;;;-4.00;99.90;;;;;;4923623;28;20118;-70
2024/01/17 04:34:15;;;;;;;17.35;10.65;;;-4.00;99.90;;;;;;4927517;28;20815;-71
2024/01/17 04:36:41;;;;;;;22.77;11.93;;;-4.00;99.90;;;;;;4924408;28;20027;-71
2024/01/17 04:39:08;;;;;;;28.17;13.65;;;-4.00;99.90;;;;;;4926429;28;20035;-71
2024/01/17 04:41:34;;;;;;;23.15;13.15;;;-4.10;99.90;;;;;;4925534;28;20031;-71
2024/01/17 04:44:00;;;;;;;27.65;14.48;;;-4.00;99.90;;;;;;4930268;28;20563;-70
2024/01/17 04:46:27;;;;;;;29.10;15.23;;;-4.00;99.90;;;;;;4929303;28;20611;-71
2024/01/17 04:48:52;;;;;;;26.42;14.02;;;-4.00;99.90;;;;;;4924350;28;20111;-71
2024/01/17 04:51:21;;;;;;;28.20;13.60;;;-4.00;99.90;;;;;;4925134;28;20043;-71
2024/01/17 04:53:48;;;;;;;26.42;13.75;;;-4.10;99.90;;;;;;4928503;28;20047;-71
2024/01/17 04:56:15;;;;;;;24.90;12.98;;;-4.00;99.90;;;;;;4931243;28;20082;-71
2024/01/17 04:58:43;;;;;;;23.95;13.50;;;-4.00;99.90;;;;;;4928536;28;20045;-71
2024/01/17 05:01:09;;;;;;;13.43;8.68;;;-4.10;99.90;;;;;;4932666;28;20027;-71
2024/01/17 05:03:35;;;;;;;14.93;7.35;;;-4.10;99.90;;;;;;4934052;28;20142;-67
2024/01/17 05:06:01;;;;;;;9.20;6.45;;;-4.10;99.90;;;;;;4930965;28;20105;-71
2024/01/17 05:08:27;;;;;;;12.90;7.60;;;-4.20;99.90;;;;;;4932746;28;20097;-71
2024/01/17 05:10:53;;;;;;;12.98;7.55;;;-4.20;99.90;;;;;;4936829;28;20027;-71
2024/01/17 05:13:19;;;;;;;13.02;7.18;;;-4.20;99.90;;;;;;4914114;29;20066;-70
2024/01/17 05:15:44;;;;;;;13.75;8.27;;;-4.20;99.90;;;;;;4936917;28;20046;-71
2024/01/17 05:18:10;;;;;;;17.80;9.27;;;-4.10;99.90;;;;;;4933218;28;20583;-71
2024/01/17 05:20:35;;;;;;;23.52;12.70;;;-4.10;99.90;;;;;;4932572;28;20042;-71
2024/01/17 05:23:01;;;;;;;52.47;28.65;;;-4.10;99.90;;;;;;4931763;28;20039;-70
2024/01/17 05:25:27;;;;;;;54.10;28.05;;;-4.00;99.90;;;;;;4918843;28;20054;-67
2024/01/17 05:27:53;;;;;;;51.30;30.05;;;-4.00;99.90;;;;;;4932380;28;20027;-67
2024/01/17 05:30:20;;;;;;;47.53;25.65;;;-4.10;99.90;;;;;;4931124;28;21079;-67
2024/01/17 05:32:45;;;;;;;28.40;16.05;;;-4.00;99.90;;;;;;4932200;28;20098;-66
2024/01/17 05:35:11;;;;;;;17.65;10.18;;;-4.10;99.90;;;;;;4932636;28;20035;-66
2024/01/17 05:37:41;;;;;;;15.45;8.93;;;-4.10;99.90;;;;;;4930394;28;20042;-67
2024/01/17 05:40:10;;;;;;;11.73;7.47;;;-4.10;99.90;;;;;;4934097;28;20034;-67
2024/01/17 05:42:37;;;;;;;13.38;7.05;;;-4.20;99.90;;;;;;4932599;28;20031;-67
2024/01/17 05:45:04;;;;;;;13.27;7.18;;;-4.20;99.90;;;;;;4931555;28;20055;-67
2024/01/17 05:47:30;;;;;;;10.20;6.50;;;-4.30;99.90;;;;;;4933457;28;20161;-67
2024/01/17 05:49:57;;;;;;;9.07;6.15;;;-4.30;99.90;;;;;;4933112;28;20127;-67
2024/01/17 05:52:23;;;;;;;12.57;6.25;;;-4.30;99.90;;;;;;4928721;28;20047;-67
2024/01/17 05:54:49;;;;;;;11.10;7.18;;;-4.20;99.90;;;;;;4929900;28;20081;-67
2024/01/17 05:57:14;;;;;;;8.38;5.75;;;-4.30;99.90;;;;;;4933305;28;20117;-67
2024/01/17 05:59:40;;;;;;;9.77;5.57;;;-4.30;99.90;;;;;;4932024;28;20043;-67
2024/01/17 06:02:06;;;;;;;11.70;6.63;;;-4.40;99.90;;;;;;4928780;28;20676;-67
2024/01/17 06:04:33;;;;;;;9.05;5.20;;;-4.40;99.90;;;;;;4930478;28;20432;-66
2024/01/17 06:06:59;;;;;;;10.35;6.07;;;-4.40;99.90;;;;;;4931736;28;20089;-66
2024/01/17 06:09:24;;;;;;;13.25;6.60;;;-4.40;99.90;;;;;;4924296;28;20066;-66
2024/01/17 06:11:50;;;;;;;10.45;6.78;;;-4.30;99.90;;;;;;4935160;28;20031;-66
2024/01/17 06:14:16;;;;;;;11.13;6.35;;;-4.20;99.90;;;;;;4927174;28;20086;-66
2024/01/17 06:16:41;;;;;;;16.45;7.80;;;-4.20;99.90;;;;;;4934146;28;20369;-67
2024/01/17 06:19:07;;;;;;;12.27;6.32;;;-4.20;99.90;;;;;;4932513;28;20713;-67
2024/01/17 06:21:32;;;;;;;19.42;10.20;;;-4.20;99.90;;;;;;4913971;28;20043;-66
2024/01/17 06:23:58;;;;;;;23.23;12.60;;;-4.20;99.90;;;;;;4922293;28;20039;-66
2024/01/17 06:26:23;;;;;;;28.77;13.95;;;-4.00;99.90;;;;;;4923328;28;20071;-66
2024/01/17 06:28:49;;;;;;;29.27;13.23;;;-4.00;99.90;;;;;;4921187;28;20047;-67
2024/01/17 06:31:25;;;;;;;23.83;13.57;;;-3.90;99.90;;;;;;4923428;28;20534;-66
2024/01/17 06:33:51;;;;;;;27.17;14.77;;;-3.80;99.90;;;;;;4928045;28;20367;-66
2024/01/17 06:36:17;;;;;;;19.65;11.68;;;-3.70;99.90;;;;;;4926023;28;20044;-67
2024/01/17 06:38:43;;;;;;;22.70;13.55;;;-3.90;99.90;;;;;;4925493;28;20039;-66
2024/01/17 06:41:09;;;;;;;23.98;15.60;;;-3.90;99.90;;;;;;4926591;28;20043;-66
2024/01/17 06:43:35;;;;;;;28.70;17.98;;;-3.80;99.90;;;;;;4925328;28;20561;-66
2024/01/17 06:46:00;;;;;;;30.13;17.08;;;-3.70;99.90;;;;;;4924759;28;20086;-65
2024/01/17 06:48:26;;;;;;;31.02;17.88;;;-3.60;99.90;;;;;;4932219;28;20038;-66
2024/01/17 06:50:51;;;;;;;25.17;15.52;;;-3.60;99.90;;;;;;4929391;28;20058;-66
2024/01/17 06:53:17;;;;;;;40.25;19.10;;;-3.60;99.90;;;;;;4932465;28;20034;-67
2024/01/17 06:55:43;;;;;;;34.60;17.58;;;-3.50;99.90;;;;;;4932691;28;20470;-71
2024/01/17 06:58:10;;;;;;;25.48;15.98;;;-3.40;99.90;;;;;;4935935;28;20126;-71
2024/01/17 07:00:36;;;;;;;27.15;15.55;;;-3.30;99.90;;;;;;4926334;28;20036;-71
2024/01/17 07:03:01;;;;;;;26.38;14.80;;;-3.20;99.90;;;;;;4929520;28;20451;-70
2024/01/17 07:05:28;;;;;;;21.05;13.38;;;-3.10;99.90;;;;;;4930668;28;20128;-71
2024/01/17 07:07:53;;;;;;;21.38;12.90;;;-3.00;99.90;;;;;;4930753;28;21606;-71
2024/01/17 07:10:19;;;;;;;27.73;12.68;;;-2.80;99.90;;;;;;4929944;28;20031;-70
2024/01/17 07:12:45;;;;;;;34.13;17.42;;;-2.80;99.90;;;;;;4935064;28;20037;-66
2024/01/17 07:15:11;;;;;;;25.20;12.15;;;-2.60;99.90;;;;;;4934627;28;20419;-70
2024/01/17 07:17:37;;;;;;;21.55;11.60;;;-2.50;99.90;;;;;;4912731;28;20039;-71
2024/01/17 07:20:04;;;;;;;22.58;12.88;;;-2.40;99.90;;;;;;4912190;28;20074;-71
2024/01/17 07:22:30;;;;;;;25.40;13.27;;;-2.20;99.90;;;;;;4931696;28;20031;-69
2024/01/17 07:24:55;;;;;;;26.02;12.88;;;-2.10;99.90;;;;;;4931775;28;20058;-71
2024/01/17 07:27:21;;;;;;;26.50;11.52;;;-2.00;99.90;;;;;;4929829;28;20431;-70
2024/01/17 07:29:46;;;;;;;24.05;12.38;;;-1.80;99.90;;;;;;4934493;28;20047;-70
2024/01/17 07:32:13;;;;;;;23.67;12.07;;;-1.70;99.90;;;;;;4918210;28;20102;-70
2024/01/17 07:34:38;;;;;;;23.88;12.25;;;-1.60;99.90;;;;;;4932092;28;20043;-66
2024/01/17 07:37:04;;;;;;;21.08;12.02;;;-1.50;99.90;;;;;;4924729;28;20519;-67
2024/01/17 07:39:30;;;;;;;23.83;14.15;;;-1.40;99.90;;;;;;4912253;28;20036;-68
2024/01/17 07:41:56;;;;;;;23.30;13.07;;;-1.30;99.90;;;;;;4934858;28;20110;-67
2024/01/17 07:44:26;;;;;;;24.75;12.10;;;-1.20;99.90;;;;;;4931475;28;20046;-67
2024/01/17 07:46:53;;;;;;;21.40;12.85;;;-1.10;99.90;;;;;;4930507;28;20164;-67
2024/01/17 07:49:19;;;;;;;20.27;12.27;;;-1.00;99.90;;;;;;4942289;28;20759;-68
2024/01/17 07:51:45;;;;;;;20.20;12.02;;;-0.90;99.90;;;;;;4924403;28;20057;-67
2024/01/17 07:54:10;;;;;;;20.08;12.40;;;-0.90;99.90;;;;;;4933633;28;20059;-67
2024/01/17 07:56:36;;;;;;;17.42;11.13;;;-0.80;99.90;;;;;;4933230;28;20077;-68
2024/01/17 07:59:02;;;;;;;18.75;10.50;;;-0.70;99.90;;;;;;4935216;28;20046;-68
2024/01/17 08:01:29;;;;;;;15.40;10.23;;;-0.60;99.90;;;;;;4916018;28;20039;-68
2024/01/17 08:03:55;;;;;;;16.20;9.88;;;-0.60;99.90;;;;;;4933743;28;20035;-67
2024/01/17 08:06:20;;;;;;;15.15;9.48;;;-0.50;99.90;;;;;;4931952;28;20039;-67
2024/01/17 08:08:46;;;;;;;19.55;10.70;;;-0.50;99.90;;;;;;4918548;28;20074;-67
2024/01/17 08:11:13;;;;;;;14.57;9.93;;;-0.40;99.90;;;;;;4916583;29;20583;-67
2024/01/17 08:13:39;;;;;;;18.27;9.70;;;-0.50;99.90;;;;;;4913329;29;20040;-67
2024/01/17 08:16:05;;;;;;;19.70;11.05;;;-0.40;99.90;;;;;;4916084;29;20036;-68
2024/01/17 08:18:31;;;;;;;12.63;9.65;;;-0.40;99.90;;;;;;4912435;29;20102;-68
2024/01/17 08:20:57;;;;;;;17.80;10.32;;;-0.30;99.90;;;;;;4914153;29;20445;-67
2024/01/17 08:23:23;;;;;;;16.23;10.77;;;-0.30;99.90;;;;;;4916347;29;20123;-67
2024/01/17 08:25:48;;;;;;;15.43;10.13;;;-0.30;99.90;;;;;;4898798;29;20042;-68
2024/01/17 08:28:14;;;;;;;13.80;9.52;;;-0.30;99.90;;;;;;4912016;29;20036;-71
2024/01/17 08:30:40;;;;;;;13.32;9.02;;;-0.20;99.90;;;;;;4932064;28;20077;-71
2024/01/17 08:33:05;;;;;;;14.65;9.00;;;-0.20;99.90;;;;;;4913786;29;20726;-70
2024/01/17 08:35:31;;;;;;;15.13;8.95;;;-0.20;99.90;;;;;;4913065;29;20044;-71
2024/01/17 08:37:57;;;;;;;18.33;8.27;;;-0.10;99.90;;;;;;4920406;29;20121;-71
2024/01/17 08:40:22;;;;;;;19.13;8.88;;;-0.10;99.90;;;;;;4918768;29;20142;-72
2024/01/17 08:42:48;;;;;;;15.25;8.55;;;0.00;99.90;;;;;;4918654;29;20110;-71
2024/01/17 08:45:15;;;;;;;17.67;11.13;;;0.00;99.90;;;;;;4917207;29;20313;-71
2024/01/17 08:47:43;;;;;;;12.45;8.75;;;0.00;99.90;;;;;;4918682;29;20316;-67
2024/01/17 08:50:11;;;;;;;15.20;8.77;;;0.10;99.90;;;;;;4911463;29;20721;-67
2024/01/17 08:52:37;;;;;;;13.52;8.38;;;0.20;99.90;;;;;;4914229;29;20374;-67
2024/01/17 08:55:08;;;;;;;12.13;8.77;;;0.20;99.90;;;;;;4915810;29;20055;-67
2024/01/17 08:57:37;;;;;;;13.10;9.13;;;0.20;99.90;;;;;;4914108;29;20050;-67
2024/01/17 09:00:05;;;;;;;14.63;8.80;;;0.20;99.90;;;;;;4914308;29;20302;-67
2024/01/17 09:02:31;;;;;;;12.95;8.45;;;0.20;99.90;;;;;;4908006;29;20122;-67
2024/01/17 09:04:57;;;;;;;13.55;8.63;;;0.30;99.90;;;;;;4912632;29;20431;-66
2024/01/17 09:07:23;;;;;;;12.25;7.22;;;0.30;99.90;;;;;;4914712;28;20058;-67
2024/01/17 09:09:48;;;;;;;23.17;7.88;;;0.20;99.90;;;;;;4930965;28;20035;-68
2024/01/17 09:12:17;;;;;;;13.63;7.78;;;0.30;99.90;;;;;;4929971;28;20046;-68
2024/01/17 09:14:43;;;;;;;13.73;9.27;;;0.30;99.90;;;;;;4930782;28;20047;-68
2024/01/17 09:17:09;;;;;;;11.55;7.43;;;0.30;99.90;;;;;;4932844;28;20046;-68
2024/01/17 09:19:35;;;;;;;10.65;7.47;;;0.20;99.90;;;;;;4928439;28;20070;-67
2024/01/17 09:22:00;;;;;;;11.75;7.45;;;0.20;99.90;;;;;;4932357;28;20122;-71
2024/01/17 09:24:26;;;;;;;11.05;6.93;;;0.20;99.90;;;;;;4935360;28;20043;-71
2024/01/17 09:26:52;;;;;;;9.50;6.72;;;0.20;99.90;;;;;;4930042;28;20154;-71
2024/01/17 09:29:18;;;;;;;9.45;6.50;;;0.20;99.90;;;;;;4929806;28;20562;-71
2024/01/17 09:31:44;;;;;;;10.75;7.15;;;0.30;99.90;;;;;;4928909;28;20031;-71
2024/01/17 09:34:09;;;;;;;11.45;7.20;;;0.20;99.90;;;;;;4928851;28;20131;-71
2024/01/17 09:36:35;;;;;;;11.85;7.00;;;0.20;99.90;;;;;;4932394;28;20388;-71
2024/01/17 09:39:01;;;;;;;11.57;7.13;;;0.20;99.90;;;;;;4930242;28;20031;-71
2024/01/17 09:41:26;;;;;;;15.10;8.68;;;0.30;99.90;;;;;;4930929;28;20107;-68
2024/01/17 09:43:52;;;;;;;11.50;7.20;;;0.30;99.90;;;;;;4930453;28;20119;-67
2024/01/17 09:46:18;;;;;;;12.23;7.65;;;0.40;99.90;;;;;;4929928;28;20035;-67
2024/01/17 09:48:45;;;;;;;18.30;8.27;;;0.40;99.90;;;;;;4927960;28;20495;-67
2024/01/17 09:51:16;;;;;;;11.35;7.50;;;0.40;99.90;;;;;;4925873;28;20106;-67
2024/01/17 09:53:46;;;;;;;11.80;7.25;;;0.50;99.90;;;;;;4931045;28;20046;-67
2024/01/17 09:56:12;;;;;;;10.10;7.07;;;0.50;99.90;;;;;;4930225;28;20031;-67
2024/01/17 09:58:42;;;;;;;10.25;7.30;;;0.50;99.90;;;;;;4929582;28;20166;-67
2024/01/17 10:01:10;;;;;;;9.77;6.65;;;0.50;99.90;;;;;;4929719;28;20031;-67
2024/01/17 10:03:38;;;;;;;10.30;7.40;;;0.60;99.90;;;;;;4932103;28;20035;-68
2024/01/17 10:06:06;;;;;;;8.85;6.50;;;0.60;99.90;;;;;;4927879;28;20062;-67
2024/01/17 10:08:32;;;;;;;9.60;6.30;;;0.60;99.90;;;;;;4931037;28;20101;-67
2024/01/17 10:10:58;;;;;;;9.75;7.03;;;0.60;99.90;;;;;;4931223;28;20114;-67
2024/01/17 10:13:24;;;;;;;10.77;6.93;;;0.60;99.90;;;;;;4928639;28;20037;-67
2024/01/17 10:15:49;;;;;;;9.38;6.22;;;0.60;99.90;;;;;;4928769;28;20039;-68
2024/01/17 10:18:15;;;;;;;10.02;7.05;;;0.50;99.90;;;;;;4926495;28;20039;-71
2024/01/17 10:20:42;;;;;;;9.15;6.25;;;0.50;99.90;;;;;;4935252;28;20121;-71
2024/01/17 10:23:08;;;;;;;9.55;6.07;;;0.50;99.90;;;;;;4928726;28;20100;-71
2024/01/17 10:25:38;;;;;;;9.38;6.43;;;0.50;99.90;;;;;;4933223;28;20035;-71
2024/01/17 10:28:04;;;;;;;11.00;6.70;;;0.50;99.90;;;;;;4933851;28;20372;-71
2024/01/17 10:30:30;;;;;;;9.20;6.38;;;0.50;99.90;;;;;;4935458;28;20039;-71
2024/01/17 10:32:56;;;;;;;9.43;6.70;;;0.50;99.90;;;;;;4928982;28;20106;-70
2024/01/17 10:35:23;;;;;;;11.27;6.50;;;0.50;99.90;;;;;;4928194;28;20038;-70
2024/01/17 10:37:52;;;;;;;10.98;7.00;;;0.50;99.90;;;;;;4935447;28;21238;-68
2024/01/17 10:40:18;;;;;;;11.00;7.78;;;0.50;99.90;;;;;;4930258;28;20404;-67
2024/01/17 10:42:44;;;;;;;10.55;7.72;;;0.50;99.90;;;;;;4928244;28;20394;-67
2024/01/17 10:45:20;;;;;;;13.32;7.63;;;0.40;99.90;;;;;;4929492;28;20035;-67
2024/01/17 10:47:46;;;;;;;10.75;8.02;;;0.40;99.90;;;;;;4931406;28;20070;-67
2024/01/17 10:50:12;;;;;;;12.73;8.65;;;0.30;99.90;;;;;;4928004;28;20404;-67
2024/01/17 10:52:40;;;;;;;15.88;8.77;;;0.40;99.90;;;;;;4927422;28;20190;-70
2024/01/17 10:55:10;;;;;;;11.95;8.65;;;0.40;99.90;;;;;;4928970;28;20127;-70
2024/01/17 10:57:40;;;;;;;14.35;8.63;;;0.50;99.90;;;;;;4933067;28;20035;-70
2024/01/17 11:00:11;;;;;;;13.80;8.50;;;0.50;99.90;;;;;;4930806;28;20067;-71
2024/01/17 11:02:40;;;;;;;10.73;7.65;;;0.50;99.90;;;;;;4933619;28;20122;-71
2024/01/17 11:05:10;;;;;;;10.18;7.63;;;0.60;99.90;;;;;;4931691;28;20110;-71
2024/01/17 11:07:36;;;;;;;11.38;8.27;;;0.50;99.90;;;;;;4931621;28;20385;-71
2024/01/17 11:10:04;;;;;;;10.27;7.80;;;0.50;99.90;;;;;;4927531;28;20032;-70
2024/01/17 11:12:33;;;;;;;11.32;7.47;;;0.50;99.90;;;;;;4930134;28;20677;-71
2024/01/17 11:15:03;;;;;;;12.13;8.20;;;0.50;99.90;;;;;;4930085;28;20888;-71
2024/01/17 11:17:32;;;;;;;12.88;8.27;;;0.50;99.90;;;;;;4932986;28;20059;-71
2024/01/17 11:19:59;;;;;;;13.65;8.60;;;0.50;99.90;;;;;;4937852;28;20027;-70
2024/01/17 11:22:25;;;;;;;18.63;8.63;;;0.50;99.90;;;;;;4933037;28;20039;-71
2024/01/17 11:25:10;;;;;;;11.10;7.75;;;0.50;99.90;;;;;;4936489;28;20053;-71
2024/01/17 11:28:03;;;;;;;10.93;8.90;;;0.50;99.90;;;;;;4937426;28;20105;-71
2024/01/17 11:30:50;;;;;;;10.95;8.23;;;0.50;99.90;;;;;;4940516;28;20373;-71
2024/01/17 11:33:16;;;;;;;12.88;8.25;;;0.60;99.90;;;;;;4935280;28;20031;-70
2024/01/17 11:35:48;;;;;;;12.00;8.40;;;0.60;99.90;;;;;;4938064;28;20043;-70
2024/01/17 11:38:23;;;;;;;11.38;7.50;;;0.60;99.90;;;;;;4937612;28;20429;-72
2024/01/17 11:40:50;;;;;;;10.50;7.78;;;0.60;99.90;;;;;;4937399;28;20409;-71
2024/01/17 11:43:17;;;;;;;13.90;8.68;;;0.60;99.90;;;;;;4936571;28;20087;-71
2024/01/17 11:45:44;;;;;;;11.70;8.35;;;0.70;99.90;;;;;;4938520;28;20037;-71
2024/01/17 11:48:18;;;;;;;11.88;8.23;;;0.60;99.90;;;;;;4938407;28;20058;-71
2024/01/17 11:51:04;;;;;;;12.80;8.43;;;0.60;99.90;;;;;;4935229;28;20086;-67
2024/01/17 11:53:31;;;;;;;23.33;16.27;;;0.60;99.90;;;;;;4933501;28;20055;-68
2024/01/17 11:56:00;;;;;;;141.35;125.45;;;0.60;99.90;;;;;;4934065;28;20027;-68
2024/01/17 11:58:39;;;;;;;37.22;32.70;;;0.50;99.90;;;;;;4938212;28;20054;-67
2024/01/17 12:01:12;;;;;;;19.13;14.55;;;0.50;99.90;;;;;;4931393;28;20615;-67
2024/01/17 12:03:38;;;;;;;18.35;13.15;;;0.40;99.90;;;;;;4915402;28;20063;-68
2024/01/17 12:06:04;;;;;;;19.42;13.02;;;0.40;99.90;;;;;;4934318;28;20031;-68
2024/01/17 12:08:30;;;;;;;16.67;11.48;;;0.30;99.90;;;;;;4936625;28;20055;-67
2024/01/17 12:10:56;;;;;;;19.48;13.00;;;0.30;99.90;;;;;;4920750;28;20345;-68
2024/01/17 12:13:24;;;;;;;16.60;12.18;;;0.30;99.90;;;;;;4933063;28;20183;-67
2024/01/17 12:15:57;;;;;;;18.80;12.80;;;0.40;99.90;;;;;;4928351;28;20535;-67
2024/01/17 12:18:24;;;;;;;19.58;13.48;;;0.40;99.90;;;;;;4931691;28;20110;-67
2024/01/17 12:20:50;;;;;;;17.88;11.90;;;0.40;99.90;;;;;;4929409;28;20063;-67
2024/01/17 12:23:21;;;;;;;23.25;13.45;;;0.30;99.90;;;;;;4936821;29;20123;-67
2024/01/17 12:25:47;;;;;;;18.30;12.48;;;0.40;99.90;;;;;;4937753;28;20138;-67
2024/01/17 12:28:21;;;;;;;17.70;12.52;;;0.40;99.90;;;;;;4927607;28;20023;-77
2024/01/17 12:31:04;;;;;;;17.08;12.85;;;0.40;99.90;;;;;;4934248;28;20110;-67
2024/01/17 12:33:37;;;;;;;19.73;12.38;;;0.40;99.90;;;;;;4936530;28;20047;-67